Time;durP1;ratioP1;P1;durP2;ratioP2;P2;SDS_P1;SDS_P2;PMS_P1;PMS_P2;Temp;Humidity;BMP_temperature;BMP_pressure;BME280_temperature;BME280_humidity;BME280_pressure;Samples;Min_cycle;Max_cycle;Signal;HPM_P1;HPM_P2
2023/05/19 00:01:18;;;;;;;8.20;4.82;;;8.10;99.90;;;;;;5156271;27;20030;-34
2023/05/19 00:03:52;;;;;;;8.70;4.90;;;8.10;99.90;;;;;;5169833;27;20037;-36
2023/05/19 00:06:23;;;;;;;6.35;5.10;;;8.10;99.90;;;;;;5149527;27;20294;-34
2023/05/19 00:08:58;;;;;;;11.02;4.95;;;8.10;99.90;;;;;;5143311;27;20038;-33
2023/05/19 00:11:26;;;;;;;9.68;5.40;;;8.00;99.90;;;;;;5137486;27;20491;-33
2023/05/19 00:13:56;;;;;;;9.13;4.72;;;8.00;99.90;;;;;;5145522;27;20070;-36
2023/05/19 00:16:24;;;;;;;9.52;5.25;;;8.00;99.90;;;;;;5145601;27;20034;-36
2023/05/19 00:18:50;;;;;;;8.25;5.45;;;8.00;99.90;;;;;;5150514;27;20041;-35
2023/05/19 00:21:16;;;;;;;11.43;5.70;;;8.00;99.90;;;;;;5136028;27;20039;-38
2023/05/19 00:23:42;;;;;;;12.35;5.65;;;8.00;99.90;;;;;;5136144;27;20035;-38
2023/05/19 00:26:08;;;;;;;12.45;6.65;;;8.00;99.90;;;;;;5136219;27;20114;-38
2023/05/19 00:28:34;;;;;;;9.27;5.43;;;8.00;99.90;;;;;;5154902;27;20066;-38
2023/05/19 00:31:00;;;;;;;10.82;6.15;;;8.00;99.90;;;;;;5136975;27;20042;-36
2023/05/19 00:33:26;;;;;;;14.48;5.75;;;8.00;99.90;;;;;;5155270;27;20038;-36
2023/05/19 00:35:52;;;;;;;11.85;6.57;;;7.90;99.90;;;;;;5155880;27;20030;-35
2023/05/19 00:38:18;;;;;;;9.57;5.55;;;8.10;99.90;;;;;;5139895;27;20042;-38
2023/05/19 00:40:44;;;;;;;8.40;5.78;;;7.90;99.90;;;;;;5127151;27;20488;-35
2023/05/19 00:43:10;;;;;;;11.55;5.63;;;7.90;99.90;;;;;;5155244;27;20022;-36
2023/05/19 00:45:36;;;;;;;9.25;5.90;;;7.90;99.90;;;;;;5156881;27;20041;-36
2023/05/19 00:48:01;;;;;;;10.68;5.63;;;7.80;99.90;;;;;;5142933;27;20034;-34
2023/05/19 00:50:27;;;;;;;10.13;5.95;;;7.80;99.90;;;;;;5149125;27;20167;-33
2023/05/19 00:52:54;;;;;;;11.32;6.55;;;7.80;99.90;;;;;;5126871;27;20046;-34
2023/05/19 00:55:28;;;;;;;13.38;5.85;;;7.80;99.90;;;;;;5135626;27;20042;-34
2023/05/19 00:57:55;;;;;;;11.05;6.30;;;7.80;99.90;;;;;;5137361;27;20035;-33
2023/05/19 01:00:21;;;;;;;11.95;6.30;;;7.80;99.90;;;;;;5148090;27;20423;-38
2023/05/19 01:02:49;;;;;;;10.63;6.22;;;7.80;99.90;;;;;;5135429;27;20442;-33
2023/05/19 01:05:16;;;;;;;15.85;6.85;;;7.80;99.90;;;;;;5140427;27;20094;-38
2023/05/19 01:07:41;;;;;;;11.60;5.75;;;7.80;99.90;;;;;;5148245;27;20048;-37
2023/05/19 01:10:08;;;;;;;12.23;6.25;;;7.70;99.90;;;;;;5151890;27;20113;-36
2023/05/19 01:12:35;;;;;;;14.63;6.22;;;7.70;99.90;;;;;;5165104;27;20103;-36
2023/05/19 01:15:02;;;;;;;11.05;5.97;;;7.70;99.90;;;;;;5138618;27;20087;-36
2023/05/19 01:17:44;;;;;;;13.88;6.43;;;7.70;99.90;;;;;;5135216;27;20039;-33
2023/05/19 01:20:24;;;;;;;14.85;6.82;;;7.70;99.90;;;;;;5136869;27;20083;-33
2023/05/19 01:23:27;;;;;;;14.05;6.40;;;7.70;99.90;;;;;;5155650;27;20085;-37
2023/05/19 01:26:15;;;;;;;14.80;6.20;;;7.70;99.90;;;;;;5143000;27;20038;-35
2023/05/19 01:28:47;;;;;;;11.43;6.35;;;7.60;99.90;;;;;;5141469;27;20043;-33
2023/05/19 01:31:13;;;;;;;10.75;6.65;;;7.60;99.90;;;;;;5155448;27;20038;-35
2023/05/19 01:33:42;;;;;;;12.50;6.60;;;7.60;99.90;;;;;;5172997;27;20499;-36
2023/05/19 01:36:09;;;;;;;13.30;6.38;;;7.60;99.90;;;;;;5143400;27;20034;-35
2023/05/19 01:38:37;;;;;;;12.80;6.38;;;7.60;99.90;;;;;;5140332;27;20055;-37
2023/05/19 01:41:04;;;;;;;14.07;6.82;;;7.50;99.90;;;;;;5141309;27;20071;-35
2023/05/19 01:43:30;;;;;;;14.25;6.45;;;7.50;99.90;;;;;;5151174;27;20057;-36
2023/05/19 01:45:57;;;;;;;11.77;7.47;;;7.60;99.90;;;;;;5149381;27;20042;-37
2023/05/19 01:48:23;;;;;;;12.55;6.50;;;7.60;99.90;;;;;;5134751;27;20038;-34
2023/05/19 01:50:50;;;;;;;17.00;7.07;;;7.50;99.90;;;;;;5136328;27;20400;-35
2023/05/19 01:53:16;;;;;;;14.20;6.45;;;7.50;99.90;;;;;;5147933;27;20087;-34
2023/05/19 01:55:46;;;;;;;12.00;6.90;;;7.50;99.90;;;;;;5136463;27;20047;-36
2023/05/19 01:58:12;;;;;;;11.90;6.30;;;7.50;99.90;;;;;;5141946;27;20387;-35
2023/05/19 02:01:02;;;;;;;12.60;6.05;;;7.50;99.90;;;;;;5155554;27;20042;-35
2023/05/19 02:03:37;;;;;;;12.05;6.47;;;7.50;99.90;;;;;;5134672;27;20099;-35
2023/05/19 02:06:09;;;;;;;11.82;6.20;;;7.40;99.90;;;;;;5136104;27;20562;-35
2023/05/19 02:08:46;;;;;;;10.88;6.05;;;7.40;99.90;;;;;;5141430;27;20039;-34
2023/05/19 02:11:32;;;;;;;9.93;7.15;;;7.40;99.90;;;;;;5151021;27;20042;-35
2023/05/19 02:14:02;;;;;;;18.15;6.95;;;7.30;99.90;;;;;;5155682;27;20042;-34
2023/05/19 02:16:29;;;;;;;11.63;7.28;;;7.30;99.90;;;;;;5140357;27;20042;-36
2023/05/19 02:18:55;;;;;;;11.98;7.13;;;7.30;99.90;;;;;;5155396;27;20097;-35
2023/05/19 02:21:20;;;;;;;11.15;6.65;;;7.30;99.90;;;;;;5140009;27;20030;-35
2023/05/19 02:23:47;;;;;;;12.10;6.35;;;7.30;99.90;;;;;;5148893;27;20038;-36
2023/05/19 02:26:13;;;;;;;11.30;6.60;;;7.20;99.90;;;;;;5153033;27;20087;-36
2023/05/19 02:28:38;;;;;;;13.25;6.20;;;7.20;99.90;;;;;;5134381;27;20126;-35
2023/05/19 02:31:07;;;;;;;12.65;6.18;;;7.20;99.90;;;;;;5134669;27;20039;-37
2023/05/19 02:33:33;;;;;;;10.02;6.35;;;7.20;99.90;;;;;;5135299;27;20046;-35
2023/05/19 02:36:00;;;;;;;12.70;7.22;;;7.20;99.90;;;;;;5148247;27;20039;-38
2023/05/19 02:38:25;;;;;;;12.48;6.53;;;7.20;99.90;;;;;;5134346;27;20043;-36
2023/05/19 02:40:52;;;;;;;13.25;6.80;;;7.20;99.90;;;;;;5149469;27;20057;-35
2023/05/19 02:43:18;;;;;;;10.30;6.25;;;7.10;99.90;;;;;;5145385;27;20039;-38
2023/05/19 02:45:44;;;;;;;12.80;7.38;;;7.10;99.90;;;;;;5156035;27;20074;-36
2023/05/19 02:48:10;;;;;;;13.93;6.65;;;7.10;99.90;;;;;;5158953;27;20038;-36
2023/05/19 02:50:35;;;;;;;11.00;6.32;;;7.10;99.90;;;;;;5158077;27;20447;-37
2023/05/19 02:53:02;;;;;;;13.05;7.05;;;7.00;99.90;;;;;;5143155;27;20030;-36
2023/05/19 02:55:28;;;;;;;11.55;6.57;;;7.00;99.90;;;;;;5150146;27;20691;-35
2023/05/19 02:57:54;;;;;;;13.55;7.78;;;7.00;99.90;;;;;;5144793;27;20110;-37
2023/05/19 03:00:20;;;;;;;13.68;6.70;;;7.00;99.90;;;;;;5158593;27;20548;-36
2023/05/19 03:02:46;;;;;;;12.00;6.82;;;7.00;99.90;;;;;;5151851;27;20030;-35
2023/05/19 03:05:13;;;;;;;12.00;6.47;;;6.90;99.90;;;;;;5137648;27;20039;-35
2023/05/19 03:07:38;;;;;;;11.93;6.40;;;6.90;99.90;;;;;;5137993;27;20045;-36
2023/05/19 03:10:05;;;;;;;10.07;6.07;;;6.90;99.90;;;;;;5137989;27;20462;-37
2023/05/19 03:12:32;;;;;;;16.42;7.30;;;6.90;99.90;;;;;;5137532;27;20038;-33
2023/05/19 03:14:58;;;;;;;13.63;6.47;;;6.90;99.90;;;;;;5153839;27;20115;-36
2023/05/19 03:17:24;;;;;;;12.73;6.15;;;6.80;99.90;;;;;;5146848;27;20090;-34
2023/05/19 03:19:50;;;;;;;12.27;7.47;;;6.80;99.90;;;;;;5145153;27;20113;-36
2023/05/19 03:22:17;;;;;;;13.07;5.88;;;6.80;99.90;;;;;;5138362;27;20460;-36
2023/05/19 03:24:43;;;;;;;11.73;6.90;;;6.80;99.90;;;;;;5138620;27;20090;-36
2023/05/19 03:27:11;;;;;;;11.52;6.93;;;6.80;99.90;;;;;;5150714;27;20121;-39
2023/05/19 03:29:37;;;;;;;15.15;7.18;;;6.70;99.90;;;;;;5168464;27;20394;-38
2023/05/19 03:32:03;;;;;;;13.57;7.15;;;6.70;99.90;;;;;;5137492;27;20031;-34
2023/05/19 03:34:31;;;;;;;12.25;7.47;;;6.70;99.90;;;;;;5145039;27;20117;-35
2023/05/19 03:36:57;;;;;;;14.10;7.07;;;6.70;99.90;;;;;;5141026;27;20496;-36
2023/05/19 03:39:22;;;;;;;14.90;7.57;;;6.70;99.90;;;;;;5154566;27;20115;-36
2023/05/19 03:41:48;;;;;;;9.75;7.07;;;6.70;99.90;;;;;;5137347;27;20031;-35
2023/05/19 03:44:14;;;;;;;13.75;7.30;;;6.60;99.90;;;;;;5119938;27;20039;-37
2023/05/19 03:46:40;;;;;;;10.85;6.38;;;6.60;99.90;;;;;;5150931;27;20034;-37
2023/05/19 03:49:06;;;;;;;9.52;6.40;;;6.60;99.90;;;;;;5142801;27;20558;-35
2023/05/19 03:51:33;;;;;;;13.40;7.35;;;6.60;99.90;;;;;;5146193;27;20079;-35
2023/05/19 03:53:59;;;;;;;12.63;7.32;;;6.60;99.90;;;;;;5137058;27;20030;-36
2023/05/19 03:56:26;;;;;;;12.70;7.00;;;6.60;99.90;;;;;;5140632;27;20052;-36
2023/05/19 03:58:53;;;;;;;11.73;8.02;;;6.60;99.90;;;;;;5149547;27;20039;-35
2023/05/19 04:01:19;;;;;;;11.13;7.47;;;6.60;99.90;;;;;;5143167;27;20472;-38
2023/05/19 04:03:45;;;;;;;13.30;7.28;;;6.60;99.90;;;;;;5157384;27;20030;-36
2023/05/19 04:06:11;;;;;;;14.27;7.65;;;6.60;99.90;;;;;;5140260;27;20106;-34
2023/05/19 04:08:38;;;;;;;14.05;7.68;;;6.60;99.90;;;;;;5144991;27;20391;-33
2023/05/19 04:11:04;;;;;;;14.30;7.88;;;6.60;99.90;;;;;;5157242;27;20093;-37
2023/05/19 04:13:32;;;;;;;12.85;7.82;;;6.60;99.90;;;;;;5161304;27;20031;-35
2023/05/19 04:15:58;;;;;;;11.93;7.50;;;6.60;99.90;;;;;;5149739;27;20073;-36
2023/05/19 04:18:23;;;;;;;12.90;6.53;;;6.60;99.90;;;;;;5145034;27;20074;-33
2023/05/19 04:20:49;;;;;;;14.15;7.85;;;6.70;99.90;;;;;;5136703;27;20391;-34
2023/05/19 04:23:15;;;;;;;13.55;7.93;;;6.70;99.90;;;;;;5133569;27;20554;-36
2023/05/19 04:25:41;;;;;;;13.45;7.53;;;6.70;99.90;;;;;;5136303;27;20078;-35
2023/05/19 04:28:07;;;;;;;15.63;8.20;;;6.80;99.90;;;;;;5150022;27;20041;-34
2023/05/19 04:30:33;;;;;;;13.73;8.18;;;6.80;99.90;;;;;;5136641;27;20039;-36
2023/05/19 04:32:59;;;;;;;17.45;8.25;;;6.80;99.90;;;;;;5144048;27;20472;-37
2023/05/19 04:35:26;;;;;;;17.05;8.48;;;6.90;99.90;;;;;;5140576;27;20106;-36
2023/05/19 04:37:54;;;;;;;13.60;7.95;;;6.90;99.90;;;;;;5144062;27;20047;-34
2023/05/19 04:40:22;;;;;;;21.88;9.88;;;6.90;99.90;;;;;;5135943;27;20038;-36
2023/05/19 04:42:51;;;;;;;14.77;8.32;;;7.00;99.90;;;;;;5136349;27;20138;-35
2023/05/19 04:45:17;;;;;;;13.90;8.38;;;7.00;99.90;;;;;;5148337;27;20045;-34
2023/05/19 04:47:43;;;;;;;15.38;9.00;;;7.10;99.90;;;;;;5143936;27;20038;-37
2023/05/19 04:50:10;;;;;;;14.55;8.98;;;7.10;99.90;;;;;;5136258;27;20102;-35
2023/05/19 04:52:36;;;;;;;18.70;9.25;;;7.20;99.90;;;;;;5152411;27;20090;-36
2023/05/19 04:55:02;;;;;;;14.85;9.10;;;7.30;99.90;;;;;;5146088;27;20069;-36
2023/05/19 04:57:28;;;;;;;13.48;8.55;;;7.30;99.90;;;;;;5147463;27;20039;-37
2023/05/19 04:59:58;;;;;;;15.40;9.02;;;7.40;99.90;;;;;;5143046;27;20034;-39
2023/05/19 05:02:27;;;;;;;13.25;8.80;;;7.40;99.90;;;;;;5148301;27;20057;-38
2023/05/19 05:04:55;;;;;;;15.40;9.70;;;7.50;99.90;;;;;;5170107;27;20575;-37
2023/05/19 05:07:21;;;;;;;18.92;10.05;;;7.60;99.90;;;;;;5149084;27;20030;-37
2023/05/19 05:09:47;;;;;;;18.10;9.32;;;7.70;99.90;;;;;;5147202;27;20039;-37
2023/05/19 05:12:14;;;;;;;18.58;10.27;;;7.80;99.90;;;;;;5141164;27;20110;-35
2023/05/19 05:14:40;;;;;;;12.95;9.07;;;7.80;99.90;;;;;;5148403;27;20042;-36
2023/05/19 05:17:08;;;;;;;16.42;9.40;;;7.90;99.90;;;;;;5147660;27;20568;-38
2023/05/19 05:19:34;;;;;;;16.40;9.35;;;8.00;99.90;;;;;;5170201;27;20046;-36
2023/05/19 05:22:00;;;;;;;12.00;8.57;;;8.10;99.90;;;;;;5153151;27;20038;-35
2023/05/19 05:24:26;;;;;;;13.90;8.73;;;8.20;99.90;;;;;;5151404;27;20488;-36
2023/05/19 05:26:52;;;;;;;16.13;8.63;;;8.30;99.90;;;;;;5152119;27;20030;-35
2023/05/19 05:29:19;;;;;;;16.58;9.05;;;8.30;99.90;;;;;;5128100;27;20449;-36
2023/05/19 05:31:45;;;;;;;13.10;8.13;;;8.50;99.90;;;;;;5139517;27;20042;-37
2023/05/19 05:34:11;;;;;;;13.07;8.85;;;8.50;99.90;;;;;;5153214;27;20040;-38
2023/05/19 05:36:36;;;;;;;15.40;8.30;;;8.60;99.90;;;;;;5135619;27;20030;-37
2023/05/19 05:39:03;;;;;;;14.77;8.35;;;8.70;99.90;;;;;;5152811;27;20086;-35
2023/05/19 05:41:33;;;;;;;15.13;8.48;;;8.80;99.90;;;;;;5151130;27;20098;-36
2023/05/19 05:44:00;;;;;;;13.23;8.27;;;8.90;99.90;;;;;;5154601;27;20045;-38
2023/05/19 05:46:26;;;;;;;9.80;6.93;;;8.90;99.90;;;;;;5142150;27;20038;-36
2023/05/19 05:48:52;;;;;;;13.38;8.13;;;9.00;99.90;;;;;;5150063;27;20082;-36
2023/05/19 05:51:21;;;;;;;10.55;7.80;;;9.10;99.90;;;;;;5153037;27;20102;-40
2023/05/19 05:53:51;;;;;;;13.88;8.00;;;9.20;99.90;;;;;;5150653;27;20034;-36
2023/05/19 05:56:17;;;;;;;12.65;7.35;;;9.30;99.90;;;;;;5140436;27;20061;-35
2023/05/19 05:58:43;;;;;;;15.93;7.35;;;9.50;99.90;;;;;;5129046;27;20043;-42
2023/05/19 06:01:09;;;;;;;11.80;7.65;;;9.50;99.90;;;;;;5149205;27;20099;-35
2023/05/19 06:03:40;;;;;;;12.88;7.65;;;9.70;99.90;;;;;;5151576;27;20062;-37
2023/05/19 06:06:06;;;;;;;13.52;8.65;;;9.80;99.90;;;;;;5151877;27;20030;-37
2023/05/19 06:08:32;;;;;;;13.35;7.18;;;10.00;99.90;;;;;;5148803;27;20091;-38
2023/05/19 06:10:58;;;;;;;9.13;6.85;;;10.10;99.90;;;;;;5145297;27;20058;-40
2023/05/19 06:13:24;;;;;;;9.20;6.53;;;10.20;99.90;;;;;;5153753;27;20041;-37
2023/05/19 06:15:51;;;;;;;12.27;6.88;;;10.30;99.90;;;;;;5144668;27;20034;-38
2023/05/19 06:18:17;;;;;;;9.85;6.03;;;10.50;99.90;;;;;;5148392;27;20049;-39
2023/05/19 06:20:43;;;;;;;8.85;6.45;;;10.60;99.90;;;;;;5154515;27;20475;-35
2023/05/19 06:23:09;;;;;;;11.32;6.75;;;10.70;99.90;;;;;;5171356;27;20023;-38
2023/05/19 06:25:35;;;;;;;9.27;6.40;;;10.80;99.90;;;;;;5152065;27;20030;-37
2023/05/19 06:28:02;;;;;;;12.13;6.72;;;10.90;99.90;;;;;;5148955;27;20040;-39
2023/05/19 06:30:28;;;;;;;7.85;5.68;;;10.90;99.90;;;;;;5154648;27;20037;-35
2023/05/19 06:32:53;;;;;;;9.30;5.80;;;11.00;99.90;;;;;;5151681;27;20038;-37
2023/05/19 06:35:19;;;;;;;8.40;5.53;;;11.10;99.90;;;;;;5151512;27;20117;-37
2023/05/19 06:37:45;;;;;;;10.95;5.68;;;11.20;99.90;;;;;;5150995;27;20407;-36
2023/05/19 06:40:11;;;;;;;9.30;6.43;;;11.30;99.90;;;;;;5155372;27;20523;-38
2023/05/19 06:42:37;;;;;;;9.95;5.55;;;11.40;99.90;;;;;;5147370;27;20444;-36
2023/05/19 06:45:03;;;;;;;10.82;6.43;;;11.50;99.90;;;;;;5156521;27;20030;-38
2023/05/19 06:47:29;;;;;;;6.43;4.88;;;11.60;99.90;;;;;;5154421;27;20557;-38
2023/05/19 06:49:55;;;;;;;10.77;6.05;;;11.70;99.90;;;;;;5157195;27;20038;-36
2023/05/19 06:52:21;;;;;;;12.40;6.35;;;11.80;99.90;;;;;;5152520;27;20110;-36
2023/05/19 06:54:48;;;;;;;6.95;6.03;;;11.90;99.90;;;;;;5145534;27;20511;-36
2023/05/19 06:57:14;;;;;;;11.55;6.22;;;12.00;99.90;;;;;;5152244;27;20395;-36
2023/05/19 06:59:40;;;;;;;10.25;6.45;;;12.10;99.90;;;;;;5138721;27;20060;-36
2023/05/19 07:02:06;;;;;;;10.27;6.20;;;12.20;99.90;;;;;;5155005;27;20030;-38
2023/05/19 07:04:32;;;;;;;8.65;6.45;;;12.40;99.90;;;;;;5141085;27;20034;-36
2023/05/19 07:06:58;;;;;;;10.07;6.75;;;12.50;99.90;;;;;;5146846;27;20479;-36
2023/05/19 07:09:24;;;;;;;10.05;6.22;;;12.70;99.90;;;;;;5131736;27;20059;-40
2023/05/19 07:11:49;;;;;;;10.27;5.78;;;12.90;99.90;;;;;;5142029;27;20125;-38
2023/05/19 07:14:15;;;;;;;8.63;5.75;;;13.00;99.90;;;;;;5157271;27;20113;-36
2023/05/19 07:16:41;;;;;;;10.32;5.50;;;13.10;99.90;;;;;;5151811;27;20030;-36
2023/05/19 07:19:07;;;;;;;8.25;5.25;;;13.30;99.90;;;;;;5144873;27;20030;-36
2023/05/19 07:21:32;;;;;;;7.82;5.65;;;13.50;99.90;;;;;;5137109;27;20090;-36
2023/05/19 07:23:59;;;;;;;9.00;6.38;;;13.70;99.90;;;;;;5149309;27;20066;-38
2023/05/19 07:26:25;;;;;;;10.85;5.70;;;13.80;99.90;;;;;;5151596;27;20429;-39
2023/05/19 07:28:51;;;;;;;9.00;5.28;;;14.00;99.90;;;;;;5155471;27;20038;-35
2023/05/19 07:31:17;;;;;;;9.10;5.25;;;14.20;99.90;;;;;;5155353;27;20095;-35
2023/05/19 07:33:43;;;;;;;5.72;4.60;;;14.30;99.90;;;;;;5154728;27;20038;-34
2023/05/19 07:36:08;;;;;;;5.82;4.28;;;14.50;99.90;;;;;;5149067;27;20035;-35
2023/05/19 07:38:37;;;;;;;6.85;4.47;;;14.60;99.90;;;;;;5147274;27;20559;-37
2023/05/19 07:41:03;;;;;;;6.63;4.43;;;14.80;99.90;;;;;;5143191;27;20042;-35
2023/05/19 07:43:29;;;;;;;6.93;4.68;;;14.90;99.90;;;;;;5145238;27;20026;-37
2023/05/19 07:45:55;;;;;;;7.28;3.70;;;15.00;99.90;;;;;;5145831;27;20065;-35
2023/05/19 07:48:23;;;;;;;4.65;3.78;;;15.10;99.90;;;;;;5145219;27;20380;-35
2023/05/19 07:50:50;;;;;;;7.65;3.78;;;15.30;99.90;;;;;;5148772;27;20038;-36
2023/05/19 07:53:16;;;;;;;7.78;3.22;;;15.50;99.90;;;;;;5145563;27;20041;-34
2023/05/19 07:55:42;;;;;;;5.93;4.18;;;15.60;99.90;;;;;;5151690;27;20038;-35
2023/05/19 07:58:07;;;;;;;8.35;3.97;;;15.80;99.90;;;;;;5150155;27;20479;-35
2023/05/19 08:00:33;;;;;;;5.45;3.38;;;16.00;99.90;;;;;;5147468;27;20033;-35
2023/05/19 08:02:59;;;;;;;5.38;2.95;;;16.00;99.90;;;;;;5144880;27;20037;-38
2023/05/19 08:05:24;;;;;;;4.70;2.90;;;16.20;99.90;;;;;;5165134;27;20083;-35
2023/05/19 08:07:50;;;;;;;7.75;3.83;;;16.40;99.90;;;;;;5173212;27;20117;-35
2023/05/19 08:10:16;;;;;;;6.45;3.10;;;16.50;99.90;;;;;;5146343;27;20174;-35
2023/05/19 08:12:43;;;;;;;7.50;3.30;;;16.60;99.90;;;;;;5150423;27;20051;-35
2023/05/19 08:15:10;;;;;;;3.95;3.10;;;16.70;99.90;;;;;;5149994;27;20034;-34
2023/05/19 08:17:36;;;;;;;5.80;3.20;;;16.80;99.90;;;;;;5142526;27;20054;-35
2023/05/19 08:20:05;;;;;;;7.10;3.15;;;16.90;99.90;;;;;;5149556;27;20022;-34
2023/05/19 08:22:30;;;;;;;6.15;3.20;;;17.00;99.90;;;;;;5149433;27;20189;-35
2023/05/19 08:24:56;;;;;;;7.35;3.40;;;17.10;99.90;;;;;;5147672;27;20039;-36
2023/05/19 08:27:23;;;;;;;9.90;3.60;;;17.30;99.90;;;;;;5147191;27;20034;-39
2023/05/19 08:29:48;;;;;;;5.40;2.55;;;17.40;99.50;;;;;;5153764;27;20038;-35
2023/05/19 08:32:14;;;;;;;7.10;3.30;;;17.60;98.50;;;;;;5138452;27;20388;-37
2023/05/19 08:34:40;;;;;;;11.07;3.63;;;17.90;96.50;;;;;;5156408;27;20034;-39
2023/05/19 08:37:06;;;;;;;6.68;3.03;;;18.00;94.50;;;;;;5139600;27;20043;-36
2023/05/19 08:39:33;;;;;;;6.50;3.17;;;18.30;93.40;;;;;;5146132;27;20034;-36
2023/05/19 08:42:00;;;;;;;5.15;2.92;;;18.50;91.50;;;;;;5150897;27;20037;-35
2023/05/19 08:44:26;;;;;;;5.50;3.00;;;18.70;91.50;;;;;;5146097;27;20030;-36
2023/05/19 08:46:54;;;;;;;8.27;3.60;;;18.80;86.80;;;;;;5144097;27;20034;-36
2023/05/19 08:49:31;;;;;;;4.35;2.70;;;19.10;87.20;;;;;;5144144;27;20043;-38
2023/05/19 08:52:13;;;;;;;4.55;2.70;;;19.30;86.30;;;;;;5144090;27;20487;-35
2023/05/19 08:54:45;;;;;;;8.05;3.58;;;19.50;81.00;;;;;;5161827;27;20049;-35
2023/05/19 08:57:12;;;;;;;8.43;2.90;;;19.60;73.10;;;;;;5126811;27;20094;-36
2023/05/19 08:59:39;;;;;;;5.60;2.67;;;19.60;73.10;;;;;;5144478;27;20476;-35
2023/05/19 09:02:07;;;;;;;6.45;2.90;;;19.80;72.50;;;;;;5138916;27;20038;-35
2023/05/19 09:04:33;;;;;;;7.57;3.03;;;19.90;69.70;;;;;;5143084;27;20037;-39
2023/05/19 09:07:02;;;;;;;6.80;2.97;;;20.10;69.40;;;;;;5143344;27;20034;-35
2023/05/19 09:09:29;;;;;;;7.45;3.00;;;20.10;68.90;;;;;;5147143;27;20026;-35
2023/05/19 09:11:55;;;;;;;4.88;3.00;;;20.30;69.20;;;;;;5151724;27;20045;-35
2023/05/19 09:14:21;;;;;;;6.50;2.75;;;20.60;70.40;;;;;;5144927;27;20077;-35
2023/05/19 09:16:49;;;;;;;6.20;2.95;;;20.70;71.30;;;;;;5165350;27;20034;-37
2023/05/19 09:19:15;;;;;;;4.75;2.63;;;20.80;69.50;;;;;;5142390;27;20042;-37
2023/05/19 09:21:42;;;;;;;4.70;2.53;;;20.90;68.10;;;;;;5153088;27;20503;-39
2023/05/19 09:24:08;;;;;;;8.27;2.67;;;21.20;68.60;;;;;;5147745;27;20093;-36
2023/05/19 09:26:39;;;;;;;5.00;2.40;;;21.20;64.60;;;;;;5142385;27;20499;-35
2023/05/19 09:29:15;;;;;;;4.00;2.42;;;21.10;59.80;;;;;;5147266;27;20124;-36
2023/05/19 09:31:51;;;;;;;5.47;2.72;;;21.00;60.20;;;;;;5146034;27;20099;-36
2023/05/19 09:34:17;;;;;;;6.32;2.45;;;21.00;59.90;;;;;;5145139;27;20037;-38
2023/05/19 09:36:43;;;;;;;6.00;2.40;;;21.10;60.30;;;;;;5149594;27;20403;-35
2023/05/19 09:39:13;;;;;;;6.18;2.63;;;20.90;58.20;;;;;;5146020;27;20038;-36
2023/05/19 09:41:39;;;;;;;5.55;2.47;;;21.10;58.50;;;;;;5141470;27;20421;-37
2023/05/19 09:44:06;;;;;;;4.13;2.75;;;21.20;58.50;;;;;;5146992;27;20034;-37
2023/05/19 09:46:34;;;;;;;6.07;2.83;;;21.40;58.20;;;;;;5147368;27;20033;-38
2023/05/19 09:49:08;;;;;;;4.68;2.38;;;21.50;57.00;;;;;;5138993;27;20092;-38
2023/05/19 09:51:38;;;;;;;4.85;2.55;;;21.60;55.60;;;;;;5154039;27;20081;-40
2023/05/19 09:54:04;;;;;;;6.88;2.90;;;21.70;56.50;;;;;;5157272;27;20038;-35
2023/05/19 09:56:38;;;;;;;7.25;2.55;;;21.60;55.30;;;;;;5147796;27;20038;-38
2023/05/19 09:59:06;;;;;;;6.35;2.33;;;21.70;53.70;;;;;;5156443;27;20121;-38
2023/05/19 10:01:32;;;;;;;6.50;2.53;;;21.60;54.90;;;;;;5156148;27;20079;-38
2023/05/19 10:03:59;;;;;;;5.95;2.88;;;21.80;55.40;;;;;;5145470;27;20070;-37
2023/05/19 10:06:25;;;;;;;4.97;2.60;;;21.80;55.00;;;;;;5145114;27;20034;-37
2023/05/19 10:08:53;;;;;;;5.95;2.28;;;21.90;54.60;;;;;;5155948;27;20480;-38
2023/05/19 10:11:21;;;;;;;6.13;2.60;;;22.00;54.20;;;;;;5150403;27;20042;-38
2023/05/19 10:13:50;;;;;;;5.15;2.70;;;22.20;54.50;;;;;;5138929;27;20125;-38
2023/05/19 10:16:17;;;;;;;5.85;2.60;;;22.40;53.90;;;;;;5140724;27;20416;-36
2023/05/19 10:18:43;;;;;;;6.22;2.75;;;22.70;54.60;;;;;;5144528;27;20484;-37
2023/05/19 10:21:11;;;;;;;8.40;2.58;;;22.90;53.00;;;;;;5144445;27;20437;-38
2023/05/19 10:23:37;;;;;;;4.03;2.10;;;23.00;53.40;;;;;;5144319;27;20398;-37
2023/05/19 10:26:05;;;;;;;4.13;2.35;;;23.10;52.70;;;;;;5147721;27;20472;-40
2023/05/19 10:28:36;;;;;;;6.10;2.40;;;23.10;52.50;;;;;;5145953;27;20130;-37
2023/05/19 10:31:07;;;;;;;6.82;2.33;;;23.00;52.60;;;;;;5139072;27;20046;-38
2023/05/19 10:33:55;;;;;;;4.72;2.53;;;23.20;51.80;;;;;;5126660;27;20456;-36
2023/05/19 10:36:31;;;;;;;4.70;2.30;;;23.00;50.10;;;;;;5146135;27;20547;-37
2023/05/19 10:39:35;;;;;;;4.47;2.25;;;23.20;49.70;;;;;;5146210;27;20043;-38
2023/05/19 10:42:28;;;;;;;5.20;2.42;;;23.10;47.50;;;;;;5149760;27;20033;-37
2023/05/19 10:45:15;;;;;;;4.55;2.30;;;23.30;50.40;;;;;;5123477;27;20039;-38
2023/05/19 10:47:42;;;;;;;3.70;2.05;;;23.60;49.70;;;;;;5144982;27;20424;-37
2023/05/19 10:50:08;;;;;;;5.25;2.47;;;24.20;51.20;;;;;;5149606;27;20491;-36
2023/05/19 10:52:38;;;;;;;4.63;2.28;;;24.20;48.40;;;;;;5155605;27;20042;-38
2023/05/19 10:55:09;;;;;;;5.32;2.42;;;24.10;47.30;;;;;;5154625;27;20051;-37
2023/05/19 10:57:35;;;;;;;3.75;2.50;;;24.00;47.50;;;;;;5151135;27;20044;-38
2023/05/19 11:00:27;;;;;;;4.57;2.13;;;23.80;47.90;;;;;;5163126;27;20042;-37
2023/05/19 11:03:22;;;;;;;5.30;2.53;;;23.60;46.80;;;;;;5151497;27;20122;-37
2023/05/19 11:05:51;;;;;;;7.18;2.30;;;23.90;46.30;;;;;;5140690;27;20052;-40
2023/05/19 11:08:33;;;;;;;6.07;2.08;;;23.90;47.70;;;;;;5147416;27;20046;-39
2023/05/19 11:11:16;;;;;;;5.32;2.50;;;24.00;46.90;;;;;;5142742;27;20453;-37
2023/05/19 11:13:55;;;;;;;3.73;2.60;;;24.40;46.40;;;;;;5151163;27;20042;-37
2023/05/19 11:16:30;;;;;;;4.65;2.20;;;24.60;45.30;;;;;;5152888;27;20256;-37
2023/05/19 11:18:59;;;;;;;4.00;1.90;;;24.60;45.90;;;;;;5141586;27;20482;-37
2023/05/19 11:21:51;;;;;;;5.50;2.30;;;24.30;44.50;;;;;;5144393;27;20070;-38
2023/05/19 11:24:34;;;;;;;4.40;2.00;;;24.30;44.50;;;;;;5147248;27;20042;-37
2023/05/19 11:27:32;;;;;;;7.07;2.30;;;24.70;44.90;;;;;;5144224;27;20460;-39
2023/05/19 11:30:04;;;;;;;4.75;1.92;;;25.50;43.90;;;;;;5158199;27;20096;-37
2023/05/19 11:32:34;;;;;;;5.15;2.17;;;25.80;45.10;;;;;;5140796;27;20480;-40
2023/05/19 11:35:01;;;;;;;4.10;2.10;;;25.90;44.20;;;;;;5157621;27;20057;-38
2023/05/19 11:37:30;;;;;;;5.13;2.08;;;25.70;44.40;;;;;;5152893;27;20038;-37
2023/05/19 11:39:57;;;;;;;7.22;2.03;;;25.40;44.00;;;;;;5173014;27;20220;-38
2023/05/19 11:42:23;;;;;;;5.15;1.98;;;25.00;43.70;;;;;;5154638;27;20037;-35
2023/05/19 11:44:49;;;;;;;4.80;2.13;;;24.80;44.50;;;;;;5174289;27;20062;-35
2023/05/19 11:47:16;;;;;;;3.95;1.90;;;24.70;44.50;;;;;;5140708;27;20550;-35
2023/05/19 11:49:56;;;;;;;4.78;2.00;;;25.10;44.80;;;;;;5123340;27;20043;-36
2023/05/19 11:52:28;;;;;;;3.85;2.17;;;25.60;45.20;;;;;;5159150;27;20507;-35
2023/05/19 11:54:55;;;;;;;5.07;2.30;;;25.80;43.50;;;;;;5139764;27;20035;-36
2023/05/19 11:57:21;;;;;;;4.80;2.15;;;26.10;43.20;;;;;;5139538;27;20654;-35
2023/05/19 11:59:48;;;;;;;4.38;1.63;;;26.00;43.10;;;;;;5143158;27;20035;-35
2023/05/19 12:02:17;;;;;;;3.92;2.05;;;25.90;42.20;;;;;;5146578;27;20064;-35
2023/05/19 12:04:44;;;;;;;4.63;2.17;;;25.40;41.40;;;;;;5158046;27;20030;-36
2023/05/19 12:07:16;;;;;;;4.28;2.10;;;25.20;41.80;;;;;;5154513;27;20045;-35
2023/05/19 12:09:46;;;;;;;4.50;1.98;;;25.30;41.80;;;;;;5141682;27;20062;-37
2023/05/19 12:12:20;;;;;;;4.78;2.15;;;25.50;42.90;;;;;;5147536;27;20026;-36
2023/05/19 12:14:47;;;;;;;5.93;2.30;;;26.20;44.80;;;;;;5157541;27;20037;-37
2023/05/19 12:17:16;;;;;;;4.88;2.42;;;26.80;43.40;;;;;;5137238;27;20037;-35
2023/05/19 12:19:43;;;;;;;5.18;2.10;;;27.10;42.70;;;;;;5145934;27;20038;-37
2023/05/19 12:22:09;;;;;;;7.25;2.35;;;27.30;42.00;;;;;;5152851;27;20042;-39
2023/05/19 12:24:36;;;;;;;6.93;2.33;;;27.00;41.60;;;;;;5149970;27;20492;-35
2023/05/19 12:27:18;;;;;;;4.07;2.20;;;26.50;41.50;;;;;;5158232;27;20034;-35
2023/05/19 12:29:52;;;;;;;3.13;2.07;;;26.20;42.20;;;;;;5158092;27;20105;-36
2023/05/19 12:32:25;;;;;;;3.05;2.03;;;25.80;42.30;;;;;;5142102;27;20445;-35
2023/05/19 12:34:52;;;;;;;5.93;2.38;;;25.60;42.10;;;;;;5150921;27;20070;-36
2023/05/19 12:37:18;;;;;;;6.60;2.30;;;25.70;42.10;;;;;;5169563;27;20045;-36
2023/05/19 12:39:44;;;;;;;4.30;1.75;;;26.10;42.30;;;;;;5142939;27;20092;-36
2023/05/19 12:42:11;;;;;;;4.30;2.40;;;26.20;41.60;;;;;;5147515;27;20043;-35
2023/05/19 12:44:42;;;;;;;5.90;1.83;;;26.10;42.30;;;;;;5146695;27;20037;-36
2023/05/19 12:47:08;;;;;;;4.38;1.95;;;26.80;42.40;;;;;;5148306;27;20608;-35
2023/05/19 12:49:34;;;;;;;3.90;2.05;;;27.20;42.30;;;;;;5126160;27;20126;-35
2023/05/19 12:52:02;;;;;;;3.83;2.08;;;27.60;41.10;;;;;;5170669;27;20391;-36